Time;durP1;ratioP1;P1;durP2;ratioP2;P2;SDS_P1;SDS_P2;PMS_P1;PMS_P2;Temp;Humidity;BMP_temperature;BMP_pressure;BME280_temperature;BME280_humidity;BME280_pressure;Samples;Min_cycle;Max_cycle;Signal;HPM_P1;HPM_P2
2022/08/11 00:01:07;;;;;;;9.33;5.10;;;24.30;20.90;;;;;;4944377;28;20497;-77
2022/08/11 00:03:33;;;;;;;9.87;4.53;;;24.30;20.50;;;;;;4947649;29;20421;-76
2022/08/11 00:06:00;;;;;;;7.70;4.67;;;24.00;21.10;;;;;;4954512;29;20439;-76
2022/08/11 00:08:29;;;;;;;15.63;5.40;;;24.00;20.90;;;;;;4949535;29;20449;-76
2022/08/11 00:10:58;;;;;;;7.70;5.00;;;24.00;20.90;;;;;;4942000;28;20450;-78
2022/08/11 00:13:44;;;;;;;9.50;4.80;;;24.00;21.10;;;;;;4959982;28;20474;-75
2022/08/11 00:16:21;;;;;;;5.90;4.03;;;24.00;20.50;;;;;;4952334;28;20435;-75
2022/08/11 00:18:50;;;;;;;7.67;4.43;;;24.00;20.70;;;;;;4950168;28;20461;-76
2022/08/11 00:21:17;;;;;;;11.03;4.93;;;24.00;21.10;;;;;;4952992;28;20856;-76
2022/08/11 00:23:45;;;;;;;11.17;5.63;;;24.00;20.70;;;;;;4955110;28;20481;-76
2022/08/11 00:26:13;;;;;;;16.63;5.10;;;24.00;20.10;;;;;;4952654;29;20455;-77
2022/08/11 00:28:40;;;;;;;11.40;5.00;;;23.50;21.70;;;;;;4952203;29;20444;-75
2022/08/11 00:31:09;;;;;;;7.67;5.17;;;23.50;21.70;;;;;;4949918;29;20546;-75
2022/08/11 00:33:42;;;;;;;9.03;4.70;;;23.60;22.50;;;;;;4955612;28;20979;-76
2022/08/11 00:36:10;;;;;;;8.07;5.00;;;23.70;21.90;;;;;;4945599;29;20869;-75
2022/08/11 00:38:40;;;;;;;7.50;5.03;;;23.70;21.90;;;;;;4942026;29;20495;-75
2022/08/11 00:41:33;;;;;;;6.30;4.60;;;23.80;21.00;;;;;;4942446;29;20471;-76
2022/08/11 00:44:17;;;;;;;5.73;4.70;;;23.70;21.30;;;;;;4948172;29;20438;-77
2022/08/11 00:46:45;;;;;;;7.90;5.13;;;23.60;21.80;;;;;;4944671;29;21037;-75
2022/08/11 00:49:33;;;;;;;7.97;4.73;;;22.70;21.30;;;;;;4951105;29;20899;-78
2022/08/11 00:52:19;;;;;;;7.03;4.87;;;22.10;23.10;;;;;;4949812;29;20529;-75
2022/08/11 00:55:22;;;;;;;6.53;4.73;;;22.30;23.90;;;;;;4957519;28;20545;-75
2022/08/11 00:58:25;;;;;;;6.47;4.67;;;22.60;23.20;;;;;;4947932;29;20433;-75
2022/08/11 01:01:09;;;;;;;8.70;5.20;;;22.70;23.50;;;;;;4945921;29;20454;-77
2022/08/11 01:04:06;;;;;;;6.43;4.90;;;22.70;23.10;;;;;;4947378;29;20453;-75
2022/08/11 01:06:50;;;;;;;6.90;5.00;;;22.70;24.20;;;;;;4949004;28;20478;-75
2022/08/11 01:09:23;;;;;;;10.10;5.03;;;22.60;23.00;;;;;;4948625;29;20494;-75
2022/08/11 01:12:14;;;;;;;8.00;5.10;;;22.60;22.50;;;;;;4946679;28;20481;-75
2022/08/11 01:14:54;;;;;;;11.63;4.97;;;22.60;23.40;;;;;;4947567;28;20560;-77
2022/08/11 01:17:44;;;;;;;8.50;5.50;;;22.50;23.90;;;;;;4960046;28;20445;-76
2022/08/11 01:20:29;;;;;;;7.97;5.60;;;22.50;23.90;;;;;;4953483;29;20438;-76
2022/08/11 01:23:25;;;;;;;7.63;5.60;;;22.50;24.00;;;;;;4951281;29;20426;-77
2022/08/11 01:26:18;;;;;;;15.63;4.93;;;22.20;23.70;;;;;;4942780;28;20430;-75
2022/08/11 01:28:56;;;;;;;10.27;5.67;;;21.80;23.20;;;;;;4944876;29;20961;-77
2022/08/11 01:31:43;;;;;;;11.17;5.80;;;21.70;24.30;;;;;;4953006;29;20445;-75
2022/08/11 01:34:26;;;;;;;6.60;5.37;;;21.30;24.60;;;;;;4949287;29;20469;-76
2022/08/11 01:37:16;;;;;;;8.20;5.80;;;21.50;24.30;;;;;;4956663;28;20436;-75
2022/08/11 01:39:51;;;;;;;13.13;6.43;;;21.20;24.80;;;;;;4956448;28;20446;-80
2022/08/11 01:46:08;;;;;;;9.67;6.90;;;21.20;25.40;;;;;;4944332;29;20488;-75
2022/08/11 01:49:08;;;;;;;11.27;7.77;;;21.70;25.40;;;;;;4937794;28;20530;-75
2022/08/11 01:51:54;;;;;;;9.83;7.33;;;21.50;24.90;;;;;;4911777;29;20466;-75
2022/08/11 01:54:29;;;;;;;7.37;6.00;;;21.10;25.70;;;;;;4952316;29;20534;-75
2022/08/11 01:57:10;;;;;;;9.80;7.73;;;21.40;27.00;;;;;;4949349;29;20448;-78
2022/08/11 01:59:48;;;;;;;10.03;7.10;;;21.20;25.00;;;;;;4950106;28;20491;-75
2022/08/11 02:03:05;;;;;;;13.23;7.73;;;21.00;25.40;;;;;;4949628;29;20440;-75
2022/08/11 02:06:53;;;;;;;19.97;6.87;;;21.00;26.20;;;;;;4886374;29;20647;-75
2022/08/11 02:08:58;;;;;;;16.83;9.50;;;21.20;26.80;;;;;;4881897;29;20440;-76
2022/08/11 02:11:32;;;;;;;15.93;9.20;;;21.20;26.10;;;;;;4894524;29;20466;-75
2022/08/11 02:14:05;;;;;;;13.70;9.40;;;20.90;26.20;;;;;;4900039;29;20507;-75
2022/08/11 02:16:45;;;;;;;12.90;7.97;;;21.10;26.80;;;;;;4884728;29;20448;-77
2022/08/11 02:25:22;;;;;;;22.20;7.60;;;21.10;26.30;;;;;;4895051;29;20483;-75
2022/08/11 02:28:27;;;;;;;15.80;9.73;;;21.30;26.90;;;;;;4907267;29;20448;-75
2022/08/11 02:34:11;;;;;;;16.77;9.97;;;21.20;26.90;;;;;;4895175;29;20539;-75
2022/08/11 02:36:58;;;;;;;19.13;10.97;;;21.10;26.50;;;;;;4895468;29;20544;-75
2022/08/11 02:39:33;;;;;;;13.70;9.53;;;21.40;26.50;;;;;;4900238;29;20438;-76
2022/08/11 02:42:24;;;;;;;15.90;9.80;;;21.30;26.90;;;;;;4945871;29;20550;-75
2022/08/11 02:45:10;;;;;;;27.43;10.70;;;21.20;26.90;;;;;;4952788;29;20434;-76
2022/08/11 02:51:01;;;;;;;16.70;9.80;;;21.20;26.80;;;;;;4953168;28;20868;-75
2022/08/11 02:54:02;;;;;;;18.43;10.30;;;21.00;26.70;;;;;;4955888;29;20569;-77
2022/08/11 02:56:55;;;;;;;14.53;10.80;;;21.00;27.10;;;;;;4951685;29;20809;-75
2022/08/11 02:59:51;;;;;;;17.77;8.07;;;20.90;27.10;;;;;;4943701;29;20491;-75
2022/08/11 03:02:34;;;;;;;17.80;7.77;;;21.00;26.40;;;;;;4950780;28;20435;-75
2022/08/11 03:05:10;;;;;;;10.90;6.93;;;20.80;27.90;;;;;;4953256;28;20452;-75
2022/08/11 03:07:39;;;;;;;13.60;7.97;;;21.00;27.30;;;;;;4949359;29;20461;-75
2022/08/11 03:10:26;;;;;;;16.47;7.77;;;20.70;28.20;;;;;;4955441;29;21005;-78
2022/08/11 03:19:14;;;;;;;10.03;6.10;;;20.60;28.20;;;;;;4951613;28;20457;-75
2022/08/11 03:22:08;;;;;;;10.23;6.50;;;20.60;27.60;;;;;;4949794;29;20454;-75
2022/08/11 03:24:54;;;;;;;12.20;6.90;;;20.60;28.50;;;;;;4948770;29;20448;-76
2022/08/11 03:27:59;;;;;;;9.07;6.03;;;20.50;27.30;;;;;;4953728;29;20441;-75
2022/08/11 03:30:38;;;;;;;11.90;6.47;;;20.70;27.90;;;;;;4954061;29;20473;-75
2022/08/11 03:36:32;;;;;;;11.43;6.40;;;20.40;27.90;;;;;;4951061;29;20518;-76
2022/08/11 03:39:07;;;;;;;7.53;5.47;;;20.30;29.50;;;;;;4954930;28;20505;-75
2022/08/11 03:41:43;;;;;;;9.17;5.97;;;20.40;28.80;;;;;;4940776;29;20474;-75
2022/08/11 03:44:35;;;;;;;8.23;5.87;;;20.20;29.40;;;;;;4954989;29;20441;-74
2022/08/11 03:47:35;;;;;;;11.40;7.37;;;20.20;29.30;;;;;;4951914;29;20443;-76
2022/08/11 03:50:12;;;;;;;11.30;6.57;;;20.00;28.20;;;;;;4952035;29;20464;-75
2022/08/11 03:53:15;;;;;;;13.67;7.03;;;20.10;30.00;;;;;;4948026;29;20418;-75
2022/08/11 03:56:41;;;;;;;12.23;6.23;;;20.20;29.40;;;;;;4948324;29;20451;-75
2022/08/11 03:59:16;;;;;;;11.07;5.97;;;20.20;28.30;;;;;;4882640;29;20879;-77
2022/08/11 04:01:56;;;;;;;7.27;5.60;;;20.20;29.30;;;;;;4881347;29;20975;-75
2022/08/11 04:04:59;;;;;;;9.60;6.23;;;20.20;29.30;;;;;;4881924;29;20440;-75
2022/08/11 04:08:11;;;;;;;12.10;6.57;;;20.20;29.00;;;;;;4887649;29;20807;-77
2022/08/11 04:10:58;;;;;;;14.03;6.07;;;20.30;28.60;;;;;;4851226;29;20470;-75
2022/08/11 04:13:51;;;;;;;11.10;6.57;;;20.10;29.90;;;;;;4880657;29;21012;-75
2022/08/11 04:16:29;;;;;;;10.53;7.20;;;20.20;29.40;;;;;;4874314;29;20444;-76
2022/08/11 04:19:15;;;;;;;14.83;7.50;;;20.00;29.80;;;;;;4886737;29;20434;-75
2022/08/11 04:21:46;;;;;;;12.93;7.30;;;20.10;29.10;;;;;;4888140;29;20455;-75
2022/08/11 04:24:43;;;;;;;14.07;7.83;;;20.10;29.90;;;;;;4902062;29;20449;-75
2022/08/11 04:27:26;;;;;;;11.90;7.53;;;20.10;29.50;;;;;;4882829;29;20544;-75
2022/08/11 04:30:13;;;;;;;10.63;7.60;;;20.00;29.70;;;;;;4928078;29;20513;-75
2022/08/11 04:32:57;;;;;;;12.63;7.20;;;19.90;29.80;;;;;;4950937;29;20442;-76
2022/08/11 04:36:11;;;;;;;14.80;7.13;;;19.90;30.70;;;;;;4942848;28;20454;-75
2022/08/11 04:39:11;;;;;;;101.93;17.07;;;20.10;29.20;;;;;;4910844;29;20515;-75
2022/08/11 04:43:19;;;;;;;1999.90;999.90;;;20.10;30.20;;;;;;4944101;29;20988;-75
2022/08/11 04:44:43;;;;;;;1999.90;999.90;;;20.00;30.00;;;;;;4953576;29;20505;-79
2022/08/11 04:47:12;;;;;;;1999.90;999.90;;;20.00;30.80;;;;;;4951534;29;20434;-75
2022/08/11 05:02:35;;;;;;;537.80;156.53;;;20.10;31.40;;;;;;4955551;28;20424;-75
2022/08/11 05:05:32;;;;;;;143.07;12.47;;;20.00;30.20;;;;;;4952423;29;20582;-77
2022/08/11 05:08:42;;;;;;;64.10;8.67;;;19.90;29.50;;;;;;4944590;29;20508;-75
2022/08/11 05:11:29;;;;;;;106.87;9.20;;;20.00;30.10;;;;;;4904414;29;20528;-75
2022/08/11 05:34:53;;;;;;;25.27;10.93;;;20.00;29.00;;;;;;4956646;28;20464;-75
2022/08/11 05:37:31;;;;;;;28.13;11.63;;;19.70;29.80;;;;;;4872849;29;20804;-77
2022/08/11 05:57:07;;;;;;;159.87;17.93;;;20.90;29.40;;;;;;4891138;29;21028;-77
2022/08/11 05:59:33;;;;;;;163.80;16.50;;;20.20;28.60;;;;;;4889750;29;20452;-75
2022/08/11 06:02:07;;;;;;;139.40;11.57;;;20.20;29.20;;;;;;4888624;29;20560;-74
2022/08/11 06:04:33;;;;;;;139.17;13.67;;;20.00;29.10;;;;;;4882978;29;20535;-74
2022/08/11 06:07:07;;;;;;;134.90;11.80;;;20.20;30.10;;;;;;4880297;29;20451;-74
2022/08/11 06:09:35;;;;;;;131.83;11.90;;;20.60;28.80;;;;;;4878175;29;20465;-75
2022/08/11 06:12:07;;;;;;;139.10;12.47;;;20.60;28.30;;;;;;4886898;29;20548;-76
2022/08/11 06:14:39;;;;;;;134.90;11.57;;;20.90;28.20;;;;;;4950452;29;20470;-75
2022/08/11 06:17:05;;;;;;;130.70;10.90;;;20.90;28.60;;;;;;4937881;29;20474;-74
2022/08/11 06:19:34;;;;;;;121.67;10.90;;;20.80;28.10;;;;;;4944405;29;20436;-74
2022/08/11 06:22:02;;;;;;;121.40;10.67;;;20.70;28.10;;;;;;4951127;28;20189;-74
2022/08/11 06:24:28;;;;;;;14.03;8.97;;;20.60;28.10;;;;;;4949722;29;20446;-74
2022/08/11 06:26:55;;;;;;;23.23;8.20;;;21.00;28.40;;;;;;4951823;29;20444;-76
2022/08/11 06:29:22;;;;;;;13.00;7.60;;;21.50;27.10;;;;;;4952910;29;20428;-74
2022/08/11 06:31:55;;;;;;;207.23;46.37;;;21.60;26.60;;;;;;4945310;28;20474;-75
2022/08/11 06:34:45;;;;;;;10.33;7.50;;;21.30;27.60;;;;;;4945512;29;20506;-74
2022/08/11 06:38:02;;;;;;;10.97;7.63;;;21.60;28.80;;;;;;4952181;28;20449;-75
2022/08/11 06:40:39;;;;;;;651.87;92.50;;;22.00;26.70;;;;;;4910770;29;20524;-74
2022/08/11 06:43:18;;;;;;;281.87;63.37;;;21.60;27.10;;;;;;4901680;29;20444;-74
2022/08/11 06:45:47;;;;;;;26.87;16.47;;;21.40;28.00;;;;;;4909547;29;20442;-75
2022/08/11 06:48:21;;;;;;;16.47;8.07;;;21.70;27.30;;;;;;4911338;29;20443;-75
2022/08/11 06:53:52;;;;;;;118.27;70.37;;;21.90;27.10;;;;;;4905888;29;20552;-76
2022/08/11 07:02:34;;;;;;;15.93;7.73;;;22.40;26.70;;;;;;4908480;29;20508;-75
2022/08/11 07:05:07;;;;;;;15.33;7.80;;;22.00;27.00;;;;;;4833681;29;20488;-78
2022/08/11 07:16:50;;;;;;;11.00;7.50;;;22.60;26.60;;;;;;4888588;29;20847;-74
2022/08/11 07:30:52;;;;;;;8.10;6.57;;;23.60;26.70;;;;;;4875757;29;21027;-74
2022/08/11 07:33:25;;;;;;;12.60;6.70;;;24.10;25.20;;;;;;4879257;29;20467;-74
2022/08/11 07:35:55;;;;;;;10.93;6.60;;;24.50;24.10;;;;;;4874232;29;20444;-74
2022/08/11 07:38:42;;;;;;;8.33;6.30;;;24.80;24.00;;;;;;4879646;29;20447;-74
2022/08/11 07:41:14;;;;;;;9.70;6.27;;;24.60;23.20;;;;;;4907476;29;20478;-74
2022/08/11 07:43:41;;;;;;;10.50;6.13;;;24.60;23.10;;;;;;4953499;28;20435;-73
2022/08/11 07:54:26;;;;;;;12.57;6.30;;;25.30;22.40;;;;;;4949295;29;20532;-72
2022/08/11 07:56:53;;;;;;;11.87;6.43;;;25.60;22.60;;;;;;4946210;29;20816;-73
2022/08/11 08:18:38;;;;;;;14.30;6.10;;;25.80;22.20;;;;;;4940878;29;20525;-73
2022/08/11 08:21:10;;;;;;;10.37;5.90;;;26.20;22.10;;;;;;4950790;29;20517;-72
2022/08/11 08:23:38;;;;;;;12.20;6.77;;;26.10;21.70;;;;;;4943773;28;20459;-72
2022/08/11 08:28:52;;;;;;;9.97;6.10;;;26.20;21.90;;;;;;4951282;28;20488;-72
2022/08/11 08:31:18;;;;;;;12.57;6.03;;;26.00;21.30;;;;;;4950153;29;20451;-72
2022/08/11 08:33:44;;;;;;;16.00;6.13;;;26.20;21.40;;;;;;4944708;29;20463;-72
2022/08/11 08:36:11;;;;;;;7.50;6.00;;;26.50;21.20;;;;;;4951806;29;20434;-71
2022/08/11 08:38:47;;;;;;;8.03;5.70;;;26.90;21.20;;;;;;4945346;28;20787;-71
2022/08/11 08:41:27;;;;;;;18.90;6.10;;;26.70;19.60;;;;;;4938576;29;20498;-71
2022/08/11 08:43:58;;;;;;;7.40;5.10;;;25.90;20.80;;;;;;4950192;28;20997;-71
2022/08/11 08:46:31;;;;;;;6.73;5.40;;;26.60;19.20;;;;;;4947202;28;20938;-72
2022/08/11 08:49:00;;;;;;;5.97;4.70;;;26.70;16.80;;;;;;4953114;29;20427;-71
2022/08/11 08:51:35;;;;;;;7.07;4.90;;;26.70;17.50;;;;;;4943504;29;20466;-72
2022/08/11 08:54:07;;;;;;;13.40;4.80;;;27.00;17.50;;;;;;4953437;28;20508;-72
2022/08/11 08:56:38;;;;;;;6.83;4.33;;;27.40;15.90;;;;;;4946731;29;20435;-72
2022/08/11 08:59:04;;;;;;;5.93;4.67;;;27.60;16.50;;;;;;4947075;28;20526;-72
2022/08/11 09:01:49;;;;;;;14.33;4.90;;;27.60;16.80;;;;;;4951603;29;20494;-72
2022/08/11 09:04:17;;;;;;;8.50;4.50;;;27.80;15.60;;;;;;4954664;28;20533;-73
2022/08/11 09:06:43;;;;;;;7.17;4.67;;;28.00;14.40;;;;;;4949076;28;20481;-73
2022/08/11 09:09:13;;;;;;;8.50;4.60;;;27.60;14.50;;;;;;4948824;29;20435;-72
2022/08/11 09:11:52;;;;;;;6.63;4.80;;;27.50;14.20;;;;;;4949056;28;20469;-73
2022/08/11 09:17:17;;;;;;;5.27;4.50;;;27.80;14.60;;;;;;4946300;29;20422;-72
2022/08/11 09:19:45;;;;;;;8.00;4.67;;;27.70;14.30;;;;;;4947986;28;20438;-73
2022/08/11 09:27:42;;;;;;;20.87;4.20;;;27.90;13.50;;;;;;4943040;29;20458;-73
2022/08/11 09:30:10;;;;;;;10.30;4.43;;;28.00;14.40;;;;;;4949779;29;20483;-72
2022/08/11 09:32:39;;;;;;;8.23;4.60;;;28.10;13.50;;;;;;4948727;29;20689;-71
2022/08/11 09:35:06;;;;;;;4.50;3.97;;;28.40;13.30;;;;;;4951145;28;20507;-71
2022/08/11 09:40:30;;;;;;;6.63;4.60;;;28.20;13.20;;;;;;4944115;29;20512;-72
2022/08/11 09:45:51;;;;;;;6.50;4.20;;;28.20;13.60;;;;;;4944085;28;20437;-74
2022/08/11 09:48:23;;;;;;;14.63;4.20;;;28.60;13.10;;;;;;4948446;29;20521;-72
2022/08/11 09:50:54;;;;;;;5.70;4.30;;;29.10;12.70;;;;;;4952147;28;20438;-72
2022/08/11 09:53:21;;;;;;;7.77;4.50;;;29.10;11.00;;;;;;4949949;29;20442;-72
2022/08/11 09:55:47;;;;;;;17.33;4.23;;;28.70;12.60;;;;;;4948050;28;20454;-72
2022/08/11 09:58:17;;;;;;;7.90;4.40;;;29.20;11.60;;;;;;4938050;29;20434;-72
2022/08/11 10:00:46;;;;;;;7.03;3.50;;;29.40;12.60;;;;;;4937719;29;20467;-72
2022/08/11 10:03:19;;;;;;;6.10;3.83;;;29.50;11.70;;;;;;4950344;29;20497;-72
2022/08/11 10:08:41;;;;;;;5.30;4.13;;;29.50;11.60;;;;;;4948353;29;20521;-72
2022/08/11 10:11:10;;;;;;;4.60;3.67;;;29.50;11.10;;;;;;4952382;29;20941;-72
2022/08/11 10:16:28;;;;;;;4.90;3.90;;;29.90;11.70;;;;;;4952824;28;20453;-72
2022/08/11 10:18:57;;;;;;;5.47;4.07;;;30.20;11.40;;;;;;4972497;28;20425;-72
2022/08/11 10:21:34;;;;;;;7.83;3.90;;;30.10;10.50;;;;;;4971944;28;20422;-72
2022/08/11 10:26:53;;;;;;;9.13;4.03;;;29.60;12.10;;;;;;4965926;28;20429;-72
2022/08/11 10:35:13;;;;;;;12.30;4.10;;;29.60;11.70;;;;;;4946694;29;20484;-74
2022/08/11 10:37:41;;;;;;;7.33;3.77;;;30.00;11.40;;;;;;4949603;28;20431;-75
2022/08/11 10:40:08;;;;;;;6.47;4.37;;;30.30;10.90;;;;;;4949791;29;20520;-73
2022/08/11 10:48:05;;;;;;;10.20;3.97;;;30.50;10.90;;;;;;4954450;28;20424;-73
2022/08/11 10:58:48;;;;;;;8.67;3.73;;;30.20;11.20;;;;;;4949876;29;20584;-72
2022/08/11 11:01:43;;;;;;;11.20;4.67;;;30.70;9.40;;;;;;4954933;28;20443;-73
2022/08/11 11:04:14;;;;;;;5.13;4.00;;;30.90;10.00;;;;;;4955697;29;20426;-72
2022/08/11 11:07:12;;;;;;;6.67;3.80;;;31.20;8.50;;;;;;4957743;28;20492;-73
2022/08/11 11:09:46;;;;;;;11.50;3.90;;;31.20;8.40;;;;;;4941923;29;20557;-73
2022/08/11 11:18:14;;;;;;;5.30;3.60;;;31.80;8.60;;;;;;4969444;28;20933;-73
2022/08/11 11:20:47;;;;;;;4.20;3.50;;;31.70;8.20;;;;;;4956087;29;20949;-73
2022/08/11 11:23:36;;;;;;;6.10;3.50;;;31.80;8.40;;;;;;4956069;29;20398;-73
2022/08/11 11:26:11;;;;;;;5.63;3.67;;;31.80;9.70;;;;;;4902589;29;20443;-72
2022/08/11 11:29:11;;;;;;;5.07;3.37;;;32.30;9.00;;;;;;4953128;28;21102;-74
2022/08/11 11:31:49;;;;;;;9.83;3.83;;;33.10;8.60;;;;;;4930142;29;20475;-72
2022/08/11 11:34:52;;;;;;;6.50;3.20;;;34.10;6.40;;;;;;4950284;29;20517;-75
2022/08/11 11:37:18;;;;;;;9.20;3.20;;;35.00;6.00;;;;;;4950354;29;20774;-72
2022/08/11 11:39:45;;;;;;;6.77;3.13;;;35.30;5.20;;;;;;4951932;29;20438;-75
2022/08/11 11:42:11;;;;;;;8.13;3.30;;;35.80;5.10;;;;;;4954360;28;20808;-74
2022/08/11 11:44:38;;;;;;;6.37;3.20;;;36.50;4.00;;;;;;4946795;29;20950;-73
2022/08/11 11:47:05;;;;;;;3.13;2.93;;;36.90;4.80;;;;;;4954151;29;20509;-72
2022/08/11 11:49:34;;;;;;;6.27;3.20;;;37.00;5.00;;;;;;4951838;28;20502;-74
2022/08/11 11:52:00;;;;;;;6.83;2.90;;;36.40;3.20;;;;;;4950636;29;20438;-72
2022/08/11 11:54:29;;;;;;;7.77;3.03;;;37.10;3.40;;;;;;4950479;29;20521;-72
2022/08/11 11:56:57;;;;;;;7.80;3.30;;;37.20;4.00;;;;;;4948997;29;20426;-73
2022/08/11 12:02:13;;;;;;;2.90;2.70;;;38.40;1.80;;;;;;4946296;29;20937;-74
2022/08/11 12:04:46;;;;;;;6.47;2.70;;;38.70;2.10;;;;;;4952339;29;20438;-74
2022/08/11 12:09:57;;;;;;;6.60;2.83;;;38.50;2.10;;;;;;4956342;28;20496;-73
2022/08/11 12:15:10;;;;;;;5.67;3.13;;;37.80;2.50;;;;;;4954980;29;20493;-72
2022/08/11 12:17:36;;;;;;;7.23;3.20;;;38.40;3.20;;;;;;4955525;29;20418;-73
2022/08/11 12:20:03;;;;;;;8.80;2.93;;;38.20;2.30;;;;;;4956542;28;20555;-73
2022/08/11 12:27:59;;;;;;;11.40;3.10;;;38.70;2.30;;;;;;4955735;29;20481;-73
2022/08/11 12:30:25;;;;;;;5.93;2.80;;;38.50;1.30;;;;;;4959580;28;20445;-72
2022/08/11 12:32:52;;;;;;;4.63;2.50;;;39.00;1.00;;;;;;4974417;28;20555;-74
2022/08/11 12:35:17;;;;;;;8.93;2.80;;;39.10;1.00;;;;;;4974056;28;20237;-72
2022/08/11 12:37:57;;;;;;;4.60;2.70;;;38.90;1.00;;;;;;4974446;28;20676;-73
2022/08/11 12:46:03;;;;;;;5.87;2.70;;;38.30;1.20;;;;;;4935788;29;20463;-73
2022/08/11 12:54:38;;;;;;;6.77;2.80;;;37.60;2.80;;;;;;4967803;28;20608;-72
2022/08/11 13:05:34;;;;;;;4.63;3.40;;;35.70;3.40;;;;;;4954654;29;20450;-72
2022/08/11 13:08:00;;;;;;;13.70;3.20;;;35.30;2.90;;;;;;4954352;29;20561;-72
2022/08/11 13:13:14;;;;;;;6.50;3.80;;;35.00;5.80;;;;;;4955222;28;20900;-72
2022/08/11 13:15:40;;;;;;;6.73;3.30;;;34.60;5.30;;;;;;4954199;29;20467;-72
2022/08/11 13:18:07;;;;;;;6.40;3.40;;;34.20;4.90;;;;;;4954263;29;20796;-73
2022/08/11 13:20:34;;;;;;;9.90;3.37;;;34.40;4.70;;;;;;4954788;28;20455;-72
2022/08/11 13:23:01;;;;;;;4.17;3.60;;;33.60;6.10;;;;;;4972998;28;20425;-72
2022/08/11 13:25:30;;;;;;;6.27;3.70;;;33.90;5.00;;;;;;4973310;28;20417;-72
2022/08/11 13:27:58;;;;;;;9.33;3.73;;;33.40;5.60;;;;;;4973365;28;20509;-72
2022/08/11 13:33:16;;;;;;;7.23;3.53;;;33.80;4.30;;;;;;4954258;28;20502;-72
2022/08/11 13:35:44;;;;;;;6.20;3.30;;;33.60;5.10;;;;;;4953883;29;20472;-72
2022/08/11 13:38:12;;;;;;;6.30;3.40;;;34.10;5.20;;;;;;4953836;29;20423;-73
2022/08/11 13:40:39;;;;;;;3.90;3.23;;;34.00;4.50;;;;;;4953232;29;21009;-72
2022/08/11 13:43:05;;;;;;;7.60;3.53;;;33.20;6.10;;;;;;4965461;28;20500;-72
2022/08/11 13:45:33;;;;;;;4.93;3.47;;;33.90;5.30;;;;;;4954990;28;20478;-72
2022/08/11 13:48:00;;;;;;;8.57;3.73;;;34.30;5.30;;;;;;4953932;29;20419;-72
2022/08/11 13:53:13;;;;;;;10.40;3.90;;;34.10;5.80;;;;;;4960999;28;20436;-73
2022/08/11 13:55:41;;;;;;;6.80;3.57;;;33.80;6.10;;;;;;4970960;28;20556;-72
2022/08/11 13:58:11;;;;;;;4.90;3.70;;;34.20;5.50;;;;;;4972906;28;20796;-72
2022/08/11 14:00:40;;;;;;;5.53;3.23;;;34.10;5.50;;;;;;4972959;28;20461;-72
2022/08/11 14:03:11;;;;;;;4.87;3.23;;;34.50;3.70;;;;;;4971961;28;20409;-72
2022/08/11 14:05:42;;;;;;;5.97;3.43;;;34.60;4.70;;;;;;4963391;28;20435;-73
2022/08/11 14:08:11;;;;;;;4.53;3.60;;;34.30;3.80;;;;;;4953723;29;20437;-72
2022/08/11 14:10:38;;;;;;;5.40;3.43;;;34.40;3.70;;;;;;4953242;29;20521;-72
2022/08/11 14:16:04;;;;;;;4.00;3.10;;;34.60;3.80;;;;;;4940448;29;20449;-72
2022/08/11 14:18:31;;;;;;;4.13;3.10;;;34.70;3.80;;;;;;4940065;29;21082;-73
2022/08/11 14:23:48;;;;;;;7.73;4.00;;;34.80;4.30;;;;;;4951763;28;20441;-72
2022/08/11 14:26:25;;;;;;;5.10;3.87;;;33.80;6.30;;;;;;4951745;29;20435;-72
2022/08/11 14:28:55;;;;;;;6.20;4.03;;;34.20;5.20;;;;;;4948061;29;20441;-72
2022/08/11 14:31:25;;;;;;;7.07;3.40;;;34.70;5.10;;;;;;4957828;29;20472;-73
2022/08/11 14:33:54;;;;;;;14.73;3.70;;;34.60;5.70;;;;;;4959334;29;20454;-74
2022/08/11 14:36:23;;;;;;;3.63;3.47;;;34.50;3.90;;;;;;4956455;28;20445;-72
2022/08/11 14:38:49;;;;;;;8.17;3.77;;;33.90;5.90;;;;;;4959722;28;20421;-72
2022/08/11 14:47:04;;;;;;;4.80;3.20;;;34.30;4.90;;;;;;4955671;28;20453;-74
2022/08/11 14:49:33;;;;;;;6.60;3.50;;;34.70;5.20;;;;;;4944436;28;20437;-72
2022/08/11 14:52:01;;;;;;;12.73;4.03;;;34.90;5.60;;;;;;4957426;29;20442;-72
2022/08/11 14:57:17;;;;;;;6.50;3.53;;;34.50;5.60;;;;;;4959336;28;20460;-72
2022/08/11 14:59:47;;;;;;;5.80;3.40;;;34.40;6.10;;;;;;4958861;28;20438;-72
2022/08/11 15:05:00;;;;;;;4.20;3.73;;;34.90;4.70;;;;;;4949035;28;20505;-72
2022/08/11 15:07:28;;;;;;;11.17;3.70;;;34.90;4.30;;;;;;4947424;28;20438;-71
2022/08/11 15:09:57;;;;;;;9.00;3.77;;;34.90;4.90;;;;;;4955502;29;20457;-72
2022/08/11 15:12:23;;;;;;;7.47;3.73;;;34.80;5.20;;;;;;4948700;29;20949;-76
2022/08/11 15:17:42;;;;;;;5.43;3.60;;;34.50;3.80;;;;;;4923085;29;20411;-72
2022/08/11 15:25:49;;;;;;;6.63;4.00;;;34.60;3.70;;;;;;4970011;28;20808;-72
2022/08/11 15:45:46;;;;;;;8.80;3.73;;;33.80;5.60;;;;;;4894318;29;20442;-73
2022/08/11 15:48:11;;;;;;;8.03;3.57;;;33.30;5.90;;;;;;4896142;29;20412;-73
2022/08/11 15:50:45;;;;;;;6.00;4.03;;;33.40;4.70;;;;;;4896417;29;20429;-72
2022/08/11 15:53:33;;;;;;;6.30;3.30;;;33.40;4.70;;;;;;4884526;29;20501;-72
2022/08/11 15:56:00;;;;;;;7.13;3.53;;;33.40;4.70;;;;;;4886798;29;20524;-72
2022/08/11 16:04:13;;;;;;;4.63;3.57;;;33.00;4.80;;;;;;4950880;29;20438;-72
2022/08/11 16:07:10;;;;;;;6.60;3.63;;;28.60;2.90;;;;;;4943311;28;21002;-72
2022/08/11 16:10:01;;;;;;;5.57;3.93;;;32.60;4.80;;;;;;4888131;29;20519;-72
2022/08/11 16:12:36;;;;;;;5.50;3.70;;;32.40;5.70;;;;;;4889641;29;20999;-72
2022/08/11 16:17:58;;;;;;;6.20;3.77;;;32.60;5.60;;;;;;4888191;29;20491;-71
2022/08/11 16:20:26;;;;;;;12.47;4.00;;;32.90;5.10;;;;;;4884846;29;20463;-72
2022/08/11 16:22:56;;;;;;;7.67;3.63;;;33.20;4.90;;;;;;4907594;29;20440;-72
2022/08/11 16:25:23;;;;;;;5.70;3.83;;;33.40;5.40;;;;;;4906375;29;20439;-72
2022/08/11 16:27:53;;;;;;;5.23;3.90;;;33.40;5.50;;;;;;4897385;29;20489;-72
2022/08/11 16:30:19;;;;;;;9.20;3.93;;;33.30;4.10;;;;;;4906940;29;20447;-72
2022/08/11 16:32:51;;;;;;;5.50;3.63;;;33.40;4.50;;;;;;4894181;29;20445;-72
2022/08/11 16:40:53;;;;;;;8.03;3.70;;;32.90;5.10;;;;;;4896474;29;20471;-72
2022/08/11 16:48:54;;;;;;;5.50;3.60;;;32.30;4.60;;;;;;4949684;28;20441;-73
2022/08/11 16:51:20;;;;;;;14.03;3.70;;;32.30;5.40;;;;;;4949783;29;20979;-72
2022/08/11 16:53:48;;;;;;;6.67;3.50;;;32.20;5.30;;;;;;4948481;28;20844;-72
2022/08/11 16:56:26;;;;;;;5.43;3.50;;;32.40;4.30;;;;;;4952500;29;20442;-72
2022/08/11 16:59:13;;;;;;;11.00;3.60;;;32.60;4.50;;;;;;4954500;28;20922;-73
2022/08/11 17:02:05;;;;;;;6.03;3.50;;;32.60;5.60;;;;;;4938113;29;20848;-72
2022/08/11 17:13:28;;;;;;;4.00;3.60;;;32.10;4.90;;;;;;4952488;29;20406;-73
2022/08/11 17:16:07;;;;;;;4.80;3.50;;;32.10;5.80;;;;;;4950159;29;20539;-72
2022/08/11 17:18:42;;;;;;;5.50;3.20;;;31.80;5.10;;;;;;4945097;28;20450;-72
2022/08/11 17:24:46;;;;;;;6.60;3.50;;;31.50;5.70;;;;;;4913615;29;20849;-71
2022/08/11 17:27:15;;;;;;;6.70;4.23;;;31.20;5.80;;;;;;4913383;29;20447;-72
2022/08/11 17:29:49;;;;;;;8.17;4.23;;;31.30;6.90;;;;;;4903705;29;20443;-72
2022/08/11 17:38:02;;;;;;;4.30;3.53;;;31.10;5.30;;;;;;4909535;29;20464;-72
2022/08/11 17:40:31;;;;;;;9.00;3.70;;;31.00;4.70;;;;;;4905386;29;20921;-73
2022/08/11 17:48:32;;;;;;;4.60;3.40;;;31.10;4.70;;;;;;4904165;29;20456;-72
2022/08/11 17:51:10;;;;;;;8.53;3.60;;;30.80;5.90;;;;;;4906844;29;20463;-72
2022/08/11 18:03:28;;;;;;;10.23;4.00;;;30.40;6.30;;;;;;4948873;28;20541;-72
2022/08/11 18:04:50;;;;;;;6.43;3.77;;;30.40;6.70;;;;;;4947992;29;20423;-72
